| time (UTC) | temp F | wind direction | speed MPH | gust MPH | rain 1hr in | rain 24hr in | rain mn in | humidity % | barometer mb |
| 20260507014546 | 58 | 278 | 0.0 | 0.0 | 0.00 | 0.00 | 0.00 | 58 | 1011.4 |
| 20260507013112 | 58 | 92 | 0.0 | 0.0 | 0.00 | 0.00 | 0.00 | 57 | 1010.9 |
| 20260507011554 | 59 | 1 | 0.0 | 0.0 | 0.00 | 0.00 | 0.00 | 56 | 1010.8 |
| 20260507010048 | 60 | 0 | 0.0 | 0.0 | 0.00 | 0.00 | 0.00 | 54 | 1010.7 |
| 20260507004548 | 60 | 1 | 0.0 | 0.0 | 0.00 | 0.00 | 0.00 | 54 | 1010.8 |
| 20260507003043 | 61 | 1 | 0.0 | 0.0 | 0.00 | 0.00 | 0.00 | 52 | 1010.6 |
| 20260507001555 | 61 | 356 | 0.0 | 0.0 | 0.00 | 0.00 | 0.00 | 50 | 1010.5 |
| 20260507000039 | 62 | 356 | 0.0 | 0.0 | 0.00 | 0.00 | 0.00 | 48 | 1010.4 |
| 20260506234507 | 62 | 293 | 0.0 | 0.0 | 0.00 | 0.00 | 0.00 | 48 | 1010.4 |
| 20260506233006 | 63 | 319 | 0.0 | 0.0 | 0.00 | 0.00 | 0.00 | 46 | 1010.4 |
| 20260506231501 | 64 | 351 | 0.0 | 0.0 | 0.00 | 0.00 | 0.00 | 46 | 1010.5 |
| 20260506230058 | 65 | 5 | 0.0 | 0.0 | 0.00 | 0.00 | 0.00 | 42 | 1009.9 |
| 20260506224556 | 66 | 25 | 0.0 | 0.0 | 0.00 | 0.00 | 0.00 | 44 | 1010.0 |
| 20260506223108 | 68 | 97 | 1.0 | 0.0 | 0.00 | 0.00 | 0.00 | 28 | 1010.0 |
| 20260506221550 | 68 | 52 | 1.0 | 0.0 | 0.00 | 0.00 | 0.00 | 28 | 1010.1 |
| 20260506220051 | 67 | 46 | 3.0 | 0.0 | 0.00 | 0.00 | 0.00 | 29 | 1010.4 |
| 20260506214551 | 68 | 99 | 1.0 | 0.0 | 0.00 | 0.00 | 0.00 | 31 | 1009.8 |
| 20260506213047 | 67 | 59 | 1.0 | 0.0 | 0.00 | 0.00 | 0.00 | 29 | 1010.2 |
| 20260506211544 | 67 | 66 | 1.0 | 0.0 | 0.00 | 0.00 | 0.00 | 31 | 1010.7 |
| 20260506210041 | 66 | 60 | 2.0 | 0.0 | 0.00 | 0.00 | 0.00 | 33 | 1010.7 |
| 20260506204533 | 66 | 60 | 2.0 | 0.0 | 0.00 | 0.00 | 0.00 | 31 | 1010.7 |
| 20260506203040 | 66 | 75 | 3.0 | 0.0 | 0.00 | 0.00 | 0.00 | 33 | 1010.7 |
| 20260506201600 | 66 | 79 | 1.0 | 0.0 | 0.00 | 0.00 | 0.00 | 33 | 1010.9 |
| 20260506200137 | 65 | 70 | 2.0 | 0.0 | 0.00 | 0.00 | 0.00 | 34 | 1011.0 |
| 20260506194558 | 65 | 56 | 1.0 | 0.0 | 0.00 | 0.00 | 0.00 | 33 | 1011.0 |
| 20260506193049 | 65 | 63 | 1.0 | 0.0 | 0.00 | 0.00 | 0.00 | 36 | 1011.0 |
| 20260506191546 | 63 | 79 | 0.0 | 0.0 | 0.00 | 0.00 | 0.00 | 43 | 1011.3 |
| 20260506190040 | 62 | 73 | 1.0 | 0.0 | 0.00 | 0.00 | 0.00 | 37 | 1011.6 |
| 20260506184533 | 62 | 60 | 1.0 | 0.0 | 0.00 | 0.00 | 0.00 | 38 | 1012.0 |
| 20260506183030 | 62 | 60 | 1.0 | 0.0 | 0.00 | 0.00 | 0.00 | 39 | 1012.1 |
| 20260506181530 | 61 | 83 | 0.0 | 0.0 | 0.00 | 0.00 | 0.00 | 42 | 1012.5 |
| 20260506180031 | 60 | 93 | 0.0 | 0.0 | 0.00 | 0.00 | 0.00 | 45 | 1012.4 |
| 20260506174550 | 59 | 55 | 1.0 | 0.0 | 0.00 | 0.00 | 0.00 | 45 | 1012.3 |
| 20260506173057 | 60 | 59 | 0.0 | 0.0 | 0.00 | 0.00 | 0.00 | 47 | 1012.2 |
| 20260506171550 | 56 | 58 | 1.0 | 0.0 | 0.00 | 0.00 | 0.00 | 47 | 1012.7 |
| 20260506170040 | 55 | 59 | 2.0 | 0.0 | 0.00 | 0.00 | 0.00 | 48 | 1012.7 |
| 20260506164537 | 54 | 77 | 3.0 | 0.0 | 0.00 | 0.00 | 0.00 | 53 | 1012.6 |
| 20260506163044 | 53 | 70 | 3.0 | 0.0 | 0.00 | 0.00 | 0.00 | 55 | 1012.9 |
| 20260506161541 | 53 | 63 | 2.0 | 0.0 | 0.00 | 0.00 | 0.00 | 57 | 1012.7 |
| 20260506160029 | 54 | 62 | 0.0 | 0.0 | 0.00 | 0.00 | 0.00 | 55 | 1012.5 |
| 20260506154529 | 54 | 59 | 1.0 | 0.0 | 0.00 | 0.00 | 0.00 | 56 | 1012.3 |
| 20260506153027 | 53 | 58 | 1.0 | 0.0 | 0.00 | 0.00 | 0.00 | 57 | 1012.2 |
| 20260506151524 | 52 | 39 | 0.0 | 0.0 | 0.00 | 0.00 | 0.00 | 59 | 1012.4 |
| 20260506150025 | 51 | 336 | 0.0 | 0.0 | 0.00 | 0.00 | 0.00 | 61 | 1012.4 |
| 20260506144525 | 50 | 332 | 0.0 | 0.0 | 0.00 | 0.00 | 0.00 | 63 | 1012.4 |
| 20260506143020 | 51 | 317 | 0.0 | 0.0 | 0.00 | 0.00 | 0.00 | 57 | 1012.2 |
| 20260506141514 | 48 | 317 | 0.0 | 0.0 | 0.00 | 0.00 | 0.00 | 61 | 1012.5 |
| 20260506140013 | 46 | 313 | 0.0 | 0.0 | 0.00 | 0.00 | 0.00 | 69 | 1012.8 |
| 20260506134525 | 42 | 313 | 0.0 | 0.0 | 0.00 | 0.00 | 0.00 | 71 | 1013.1 |
| 20260506133012 | 41 | 313 | 0.0 | 0.0 | 0.00 | 0.00 | 0.00 | 75 | 1013.2 |
| 20260506131509 | 40 | 313 | 0.0 | 0.0 | 0.00 | 0.00 | 0.00 | 78 | 1013.0 |
| 20260506130008 | 40 | 313 | 0.0 | 0.0 | 0.00 | 0.00 | 0.00 | 78 | 1013.0 |
| 20260506124512 | 39 | 313 | 0.0 | 0.0 | 0.00 | 0.00 | 0.00 | 80 | 1012.6 |
| 20260506123007 | 39 | 313 | 0.0 | 0.0 | 0.00 | 0.00 | 0.00 | 81 | 1012.5 |
| 20260506121509 | 39 | 313 | 0.0 | 0.0 | 0.00 | 0.00 | 0.00 | 83 | 1012.7 |
| 20260506120009 | 38 | 313 | 0.0 | 0.0 | 0.00 | 0.00 | 0.00 | 85 | 1012.7 |
| 20260506114504 | 38 | 313 | 0.0 | 0.0 | 0.00 | 0.00 | 0.00 | 87 | 1012.4 |
| 20260506113006 | 38 | 313 | 0.0 | 0.0 | 0.00 | 0.00 | 0.00 | 88 | 1012.3 |
| 20260506111622 | 38 | 313 | 0.0 | 0.0 | 0.00 | 0.00 | 0.00 | 88 | 1012.2 |
| 20260506104606 | 38 | 313 | 0.0 | 0.0 | 0.00 | 0.00 | 0.00 | 87 | 1011.8 |
| 20260506103106 | 38 | 313 | 0.0 | 0.0 | 0.00 | 0.00 | 0.00 | 86 | 1011.8 |
| 20260506101558 | 38 | 313 | 0.0 | 0.0 | 0.00 | 0.00 | 0.00 | 85 | 1011.7 |
| 20260506100033 | 39 | 313 | 0.0 | 0.0 | 0.00 | 0.00 | 0.00 | 84 | 1011.8 |
| 20260506094527 | 39 | 313 | 0.0 | 0.0 | 0.00 | 0.00 | 0.00 | 84 | 1011.7 |
| 20260506093022 | 40 | 313 | 0.0 | 0.0 | 0.00 | 0.00 | 0.00 | 84 | 1011.6 |
| 20260506091521 | 39 | 312 | 0.0 | 0.0 | 0.00 | 0.00 | 0.00 | 85 | 1011.6 |
| 20260506090020 | 40 | 312 | 0.0 | 0.0 | 0.00 | 0.00 | 0.00 | 85 | 1011.5 |
| 20260506084521 | 40 | 326 | 0.0 | 0.0 | 0.00 | 0.00 | 0.00 | 85 | 1012.2 |
| 20260506083108 | 40 | 332 | 0.0 | 0.0 | 0.00 | 0.00 | 0.00 | 84 | 1012.2 |
| 20260506081551 | 40 | 332 | 0.0 | 0.0 | 0.00 | 0.00 | 0.00 | 83 | 1012.0 |
| 20260506073015 | 40 | 336 | 0.0 | 0.0 | 0.00 | 0.00 | 0.00 | 83 | 1013.1 |
| 20260506071515 | 40 | 4 | 0.0 | 0.0 | 0.00 | 0.00 | 0.00 | 84 | 1013.2 |
| 20260506061507 | 39 | 346 | 0.0 | 0.0 | 0.00 | 0.00 | 0.00 | 87 | 1012.8 |
| 20260506050108 | 40 | 348 | 0.0 | 0.0 | 0.00 | 0.00 | 0.00 | 86 | 1012.2 |
| 20260506044558 | 40 | 348 | 0.0 | 0.0 | 0.00 | 0.00 | 0.00 | 86 | 1012.0 |
| 20260506043056 | 40 | 348 | 0.0 | 0.0 | 0.00 | 0.00 | 0.00 | 86 | 1011.9 |
| 20260506041554 | 40 | 348 | 0.0 | 0.0 | 0.00 | 0.00 | 0.00 | 86 | 1011.6 |
| 20260506040048 | 40 | 348 | 0.0 | 0.0 | 0.00 | 0.00 | 0.00 | 85 | 1011.5 |
| 20260506034551 | 41 | 348 | 0.0 | 0.0 | 0.00 | 0.00 | 0.00 | 85 | 1011.3 |
| 20260506033016 | 41 | 348 | 0.0 | 0.0 | 0.00 | 0.00 | 0.00 | 85 | 1011.2 |
| 20260506031519 | 41 | 348 | 0.0 | 0.0 | 0.00 | 0.00 | 0.00 | 85 | 1010.9 |
| 20260506030012 | 41 | 347 | 0.0 | 0.0 | 0.00 | 0.00 | 0.00 | 84 | 1010.7 |
| 20260506024525 | 41 | 322 | 0.0 | 0.0 | 0.00 | 0.00 | 0.00 | 83 | 1010.5 |
| 20260506023006 | 42 | 322 | 0.0 | 0.0 | 0.00 | 0.00 | 0.00 | 82 | 1010.0 |
| 20260506021509 | 42 | 322 | 0.0 | 0.0 | 0.00 | 0.00 | 0.00 | 81 | 1009.9 |
| 20260506020001 | 43 | 319 | 0.0 | 0.0 | 0.00 | 0.00 | 0.00 | 81 | 1009.8 |